sensor_id;sensor_type;location;lat;lon;timestamp;temperature;humidity
33717;DHT22;20046;50.746;7.072;2023-09-18T00:00:48;20.10;99.90
33717;DHT22;20046;50.746;7.072;2023-09-18T00:03:21;20.10;99.90
33717;DHT22;20046;50.746;7.072;2023-09-18T00:05:50;20.00;99.90
33717;DHT22;20046;50.746;7.072;2023-09-18T00:08:17;20.00;99.90
33717;DHT22;20046;50.746;7.072;2023-09-18T00:10:54;20.00;99.90
33717;DHT22;20046;50.746;7.072;2023-09-18T00:13:20;20.00;99.90
33717;DHT22;20046;50.746;7.072;2023-09-18T00:15:46;20.00;99.90
33717;DHT22;20046;50.746;7.072;2023-09-18T00:18:15;20.00;99.90
33717;DHT22;20046;50.746;7.072;2023-09-18T00:20:41;20.00;99.90
33717;DHT22;20046;50.746;7.072;2023-09-18T00:23:07;19.90;99.90
33717;DHT22;20046;50.746;7.072;2023-09-18T00:25:33;19.80;99.90
33717;DHT22;20046;50.746;7.072;2023-09-18T00:27:59;19.80;99.90
33717;DHT22;20046;50.746;7.072;2023-09-18T00:30:24;19.80;99.90
33717;DHT22;20046;50.746;7.072;2023-09-18T00:32:50;19.80;99.90
33717;DHT22;20046;50.746;7.072;2023-09-18T00:35:16;19.70;99.90
33717;DHT22;20046;50.746;7.072;2023-09-18T00:37:41;19.80;99.90
33717;DHT22;20046;50.746;7.072;2023-09-18T00:40:08;19.80;99.90
33717;DHT22;20046;50.746;7.072;2023-09-18T00:42:34;19.80;99.90
33717;DHT22;20046;50.746;7.072;2023-09-18T00:45:00;19.80;99.90
33717;DHT22;20046;50.746;7.072;2023-09-18T00:47:25;19.70;99.90
33717;DHT22;20046;50.746;7.072;2023-09-18T00:49:51;19.70;99.90
33717;DHT22;20046;50.746;7.072;2023-09-18T00:52:19;19.80;99.90
33717;DHT22;20046;50.746;7.072;2023-09-18T00:54:46;19.80;99.90
33717;DHT22;20046;50.746;7.072;2023-09-18T00:57:13;19.90;99.90
33717;DHT22;20046;50.746;7.072;2023-09-18T00:59:39;20.00;99.90
33717;DHT22;20046;50.746;7.072;2023-09-18T01:02:05;20.10;99.90
33717;DHT22;20046;50.746;7.072;2023-09-18T01:04:33;20.10;99.90
33717;DHT22;20046;50.746;7.072;2023-09-18T01:06:59;20.10;99.90
33717;DHT22;20046;50.746;7.072;2023-09-18T01:09:31;20.10;99.90
33717;DHT22;20046;50.746;7.072;2023-09-18T01:17:16;20.10;99.90
33717;DHT22;20046;50.746;7.072;2023-09-18T01:19:43;20.10;99.90
33717;DHT22;20046;50.746;7.072;2023-09-18T01:22:12;20.10;99.90
33717;DHT22;20046;50.746;7.072;2023-09-18T01:24:39;20.00;99.90
33717;DHT22;20046;50.746;7.072;2023-09-18T01:27:09;20.00;99.90
33717;DHT22;20046;50.746;7.072;2023-09-18T01:29:35;20.00;99.90
33717;DHT22;20046;50.746;7.072;2023-09-18T01:32:01;20.00;99.90
33717;DHT22;20046;50.746;7.072;2023-09-18T01:34:32;20.00;99.90
33717;DHT22;20046;50.746;7.072;2023-09-18T01:36:59;20.00;99.90
33717;DHT22;20046;50.746;7.072;2023-09-18T01:39:28;20.00;99.90
33717;DHT22;20046;50.746;7.072;2023-09-18T01:42:00;20.10;99.90
33717;DHT22;20046;50.746;7.072;2023-09-18T01:44:35;20.10;99.90
33717;DHT22;20046;50.746;7.072;2023-09-18T01:47:05;20.10;99.90
33717;DHT22;20046;50.746;7.072;2023-09-18T01:49:36;20.20;99.90
33717;DHT22;20046;50.746;7.072;2023-09-18T01:52:03;20.20;99.90
33717;DHT22;20046;50.746;7.072;2023-09-18T01:54:29;20.20;99.90
33717;DHT22;20046;50.746;7.072;2023-09-18T01:56:55;20.20;99.90
33717;DHT22;20046;50.746;7.072;2023-09-18T01:59:22;20.30;99.90
33717;DHT22;20046;50.746;7.072;2023-09-18T02:01:48;20.30;99.90
33717;DHT22;20046;50.746;7.072;2023-09-18T02:04:14;20.30;99.90
33717;DHT22;20046;50.746;7.072;2023-09-18T02:06:40;20.40;99.90
33717;DHT22;20046;50.746;7.072;2023-09-18T02:09:06;20.40;99.90
33717;DHT22;20046;50.746;7.072;2023-09-18T02:11:43;20.60;99.90
33717;DHT22;20046;50.746;7.072;2023-09-18T02:14:09;20.70;99.90
33717;DHT22;20046;50.746;7.072;2023-09-18T02:16:40;20.90;99.90
33717;DHT22;20046;50.746;7.072;2023-09-18T02:19:07;21.10;99.90
33717;DHT22;20046;50.746;7.072;2023-09-18T02:21:34;21.20;99.90
33717;DHT22;20046;50.746;7.072;2023-09-18T02:23:59;21.30;99.90
33717;DHT22;20046;50.746;7.072;2023-09-18T02:26:25;21.30;99.90
33717;DHT22;20046;50.746;7.072;2023-09-18T02:28:52;21.30;99.90
33717;DHT22;20046;50.746;7.072;2023-09-18T02:31:19;21.30;99.90
33717;DHT22;20046;50.746;7.072;2023-09-18T02:33:44;21.20;99.90
33717;DHT22;20046;50.746;7.072;2023-09-18T02:36:10;21.00;99.90
33717;DHT22;20046;50.746;7.072;2023-09-18T02:38:35;20.90;99.90
33717;DHT22;20046;50.746;7.072;2023-09-18T02:41:01;20.80;99.90
33717;DHT22;20046;50.746;7.072;2023-09-18T02:43:27;20.70;99.90
33717;DHT22;20046;50.746;7.072;2023-09-18T02:45:53;20.50;99.90
33717;DHT22;20046;50.746;7.072;2023-09-18T02:48:19;20.50;99.90
33717;DHT22;20046;50.746;7.072;2023-09-18T02:50:45;20.40;99.90
33717;DHT22;20046;50.746;7.072;2023-09-18T02:53:21;20.30;99.90
33717;DHT22;20046;50.746;7.072;2023-09-18T02:55:52;20.10;99.90
33717;DHT22;20046;50.746;7.072;2023-09-18T02:58:18;20.00;99.90
33717;DHT22;20046;50.746;7.072;2023-09-18T03:00:46;20.00;99.90
33717;DHT22;20046;50.746;7.072;2023-09-18T03:03:14;19.90;99.90
33717;DHT22;20046;50.746;7.072;2023-09-18T03:05:40;19.90;99.90
33717;DHT22;20046;50.746;7.072;2023-09-18T03:08:07;19.80;99.90
33717;DHT22;20046;50.746;7.072;2023-09-18T03:10:36;19.80;99.90
33717;DHT22;20046;50.746;7.072;2023-09-18T03:13:03;19.90;99.90
33717;DHT22;20046;50.746;7.072;2023-09-18T03:15:30;19.80;99.90
33717;DHT22;20046;50.746;7.072;2023-09-18T03:17:58;19.80;99.90
33717;DHT22;20046;50.746;7.072;2023-09-18T03:20:25;19.80;99.90
33717;DHT22;20046;50.746;7.072;2023-09-18T03:22:57;19.80;99.90
33717;DHT22;20046;50.746;7.072;2023-09-18T03:25:23;19.70;99.90
33717;DHT22;20046;50.746;7.072;2023-09-18T03:27:51;19.80;99.90
33717;DHT22;20046;50.746;7.072;2023-09-18T03:30:18;19.70;99.90
33717;DHT22;20046;50.746;7.072;2023-09-18T03:32:44;19.70;99.90
33717;DHT22;20046;50.746;7.072;2023-09-18T03:35:10;19.70;99.90
33717;DHT22;20046;50.746;7.072;2023-09-18T03:37:50;19.60;99.90
33717;DHT22;20046;50.746;7.072;2023-09-18T03:40:20;19.60;99.90
33717;DHT22;20046;50.746;7.072;2023-09-18T03:42:46;19.50;99.90
33717;DHT22;20046;50.746;7.072;2023-09-18T03:45:12;19.50;99.90
33717;DHT22;20046;50.746;7.072;2023-09-18T03:47:39;19.50;99.90
33717;DHT22;20046;50.746;7.072;2023-09-18T03:50:09;19.50;99.90
33717;DHT22;20046;50.746;7.072;2023-09-18T03:52:35;19.50;99.90
33717;DHT22;20046;50.746;7.072;2023-09-18T03:55:00;19.40;99.90
33717;DHT22;20046;50.746;7.072;2023-09-18T03:57:26;19.40;99.90
33717;DHT22;20046;50.746;7.072;2023-09-18T03:59:52;19.40;99.90
33717;DHT22;20046;50.746;7.072;2023-09-18T04:02:17;19.30;99.90
33717;DHT22;20046;50.746;7.072;2023-09-18T04:04:43;19.30;99.90
33717;DHT22;20046;50.746;7.072;2023-09-18T04:07:09;19.30;99.90
33717;DHT22;20046;50.746;7.072;2023-09-18T04:09:35;19.40;99.90
33717;DHT22;20046;50.746;7.072;2023-09-18T04:12:01;19.40;99.90
33717;DHT22;20046;50.746;7.072;2023-09-18T04:14:27;19.30;99.90
33717;DHT22;20046;50.746;7.072;2023-09-18T04:16:53;19.30;99.90
33717;DHT22;20046;50.746;7.072;2023-09-18T04:19:18;19.30;99.90
33717;DHT22;20046;50.746;7.072;2023-09-18T04:21:44;19.20;99.90
33717;DHT22;20046;50.746;7.072;2023-09-18T04:24:09;19.20;99.90
33717;DHT22;20046;50.746;7.072;2023-09-18T04:26:35;19.30;99.90
33717;DHT22;20046;50.746;7.072;2023-09-18T04:29:01;19.30;99.90
33717;DHT22;20046;50.746;7.072;2023-09-18T04:31:27;19.30;99.90
33717;DHT22;20046;50.746;7.072;2023-09-18T04:33:53;19.30;99.90
33717;DHT22;20046;50.746;7.072;2023-09-18T04:36:19;19.30;99.90
33717;DHT22;20046;50.746;7.072;2023-09-18T04:38:45;19.30;99.90
33717;DHT22;20046;50.746;7.072;2023-09-18T04:41:11;19.20;99.90
33717;DHT22;20046;50.746;7.072;2023-09-18T04:43:37;19.20;99.90
33717;DHT22;20046;50.746;7.072;2023-09-18T04:46:07;19.20;99.90
33717;DHT22;20046;50.746;7.072;2023-09-18T04:48:33;19.20;99.90
33717;DHT22;20046;50.746;7.072;2023-09-18T04:50:59;19.30;99.90
33717;DHT22;20046;50.746;7.072;2023-09-18T04:53:27;19.30;99.90
33717;DHT22;20046;50.746;7.072;2023-09-18T04:55:52;19.20;99.90
33717;DHT22;20046;50.746;7.072;2023-09-18T04:58:18;19.30;99.90
33717;DHT22;20046;50.746;7.072;2023-09-18T05:00:44;19.30;99.90
33717;DHT22;20046;50.746;7.072;2023-09-18T05:03:10;19.30;99.90
33717;DHT22;20046;50.746;7.072;2023-09-18T05:05:36;19.30;99.90
33717;DHT22;20046;50.746;7.072;2023-09-18T05:08:03;19.30;99.90
33717;DHT22;20046;50.746;7.072;2023-09-18T05:10:30;19.30;99.90
33717;DHT22;20046;50.746;7.072;2023-09-18T05:12:56;19.30;99.90
33717;DHT22;20046;50.746;7.072;2023-09-18T05:15:24;19.40;99.90
33717;DHT22;20046;50.746;7.072;2023-09-18T05:17:57;19.40;99.90
33717;DHT22;20046;50.746;7.072;2023-09-18T05:20:28;19.50;99.90
33717;DHT22;20046;50.746;7.072;2023-09-18T05:22:55;19.50;99.90
33717;DHT22;20046;50.746;7.072;2023-09-18T05:25:22;19.60;99.90
33717;DHT22;20046;50.746;7.072;2023-09-18T05:27:52;19.60;99.90
33717;DHT22;20046;50.746;7.072;2023-09-18T05:30:24;19.60;99.90
33717;DHT22;20046;50.746;7.072;2023-09-18T05:32:53;19.60;99.90
33717;DHT22;20046;50.746;7.072;2023-09-18T05:35:19;19.60;99.90
33717;DHT22;20046;50.746;7.072;2023-09-18T05:37:44;19.70;99.90
33717;DHT22;20046;50.746;7.072;2023-09-18T05:40:11;19.80;99.90
33717;DHT22;20046;50.746;7.072;2023-09-18T05:42:37;19.80;99.90
33717;DHT22;20046;50.746;7.072;2023-09-18T05:45:04;19.80;99.90
33717;DHT22;20046;50.746;7.072;2023-09-18T05:47:32;19.90;99.90
33717;DHT22;20046;50.746;7.072;2023-09-18T05:49:58;19.90;99.90
33717;DHT22;20046;50.746;7.072;2023-09-18T05:52:23;19.80;99.90
33717;DHT22;20046;50.746;7.072;2023-09-18T05:54:50;19.90;99.90
33717;DHT22;20046;50.746;7.072;2023-09-18T05:57:15;19.80;99.90
33717;DHT22;20046;50.746;7.072;2023-09-18T05:59:42;19.90;99.90
33717;DHT22;20046;50.746;7.072;2023-09-18T06:02:10;19.90;99.90
33717;DHT22;20046;50.746;7.072;2023-09-18T06:04:36;19.90;99.90
33717;DHT22;20046;50.746;7.072;2023-09-18T06:07:03;19.90;99.90
33717;DHT22;20046;50.746;7.072;2023-09-18T06:09:29;19.90;99.90
33717;DHT22;20046;50.746;7.072;2023-09-18T06:11:54;20.00;99.90
33717;DHT22;20046;50.746;7.072;2023-09-18T06:14:20;20.00;99.90
33717;DHT22;20046;50.746;7.072;2023-09-18T06:16:46;20.00;99.90
33717;DHT22;20046;50.746;7.072;2023-09-18T06:19:11;20.10;99.90
33717;DHT22;20046;50.746;7.072;2023-09-18T06:21:37;20.10;99.90
33717;DHT22;20046;50.746;7.072;2023-09-18T06:24:03;20.10;99.90
33717;DHT22;20046;50.746;7.072;2023-09-18T06:26:28;20.10;99.90
33717;DHT22;20046;50.746;7.072;2023-09-18T06:28:54;20.20;99.90
33717;DHT22;20046;50.746;7.072;2023-09-18T06:31:20;20.20;99.90
33717;DHT22;20046;50.746;7.072;2023-09-18T06:33:46;20.20;99.90
33717;DHT22;20046;50.746;7.072;2023-09-18T06:36:13;20.20;99.90
33717;DHT22;20046;50.746;7.072;2023-09-18T06:38:38;20.30;99.90
33717;DHT22;20046;50.746;7.072;2023-09-18T06:41:04;20.30;99.90
33717;DHT22;20046;50.746;7.072;2023-09-18T06:43:29;20.30;99.90
33717;DHT22;20046;50.746;7.072;2023-09-18T06:45:55;20.30;99.90
33717;DHT22;20046;50.746;7.072;2023-09-18T06:48:23;20.40;99.90
33717;DHT22;20046;50.746;7.072;2023-09-18T06:50:49;20.50;99.90
33717;DHT22;20046;50.746;7.072;2023-09-18T06:53:14;20.50;99.90
33717;DHT22;20046;50.746;7.072;2023-09-18T06:55:40;20.60;99.90
33717;DHT22;20046;50.746;7.072;2023-09-18T06:58:06;20.70;99.90
33717;DHT22;20046;50.746;7.072;2023-09-18T07:00:31;20.70;99.90
33717;DHT22;20046;50.746;7.072;2023-09-18T07:02:57;20.70;99.90
33717;DHT22;20046;50.746;7.072;2023-09-18T07:05:22;20.70;99.90
33717;DHT22;20046;50.746;7.072;2023-09-18T07:07:48;20.70;99.90
33717;DHT22;20046;50.746;7.072;2023-09-18T07:10:14;20.70;99.90
33717;DHT22;20046;50.746;7.072;2023-09-18T07:12:39;20.80;99.90
33717;DHT22;20046;50.746;7.072;2023-09-18T07:15:06;20.80;99.90
33717;DHT22;20046;50.746;7.072;2023-09-18T07:17:32;20.80;99.90
33717;DHT22;20046;50.746;7.072;2023-09-18T07:19:58;20.90;99.90
33717;DHT22;20046;50.746;7.072;2023-09-18T07:22:24;20.90;99.90
33717;DHT22;20046;50.746;7.072;2023-09-18T07:24:50;20.90;99.90
33717;DHT22;20046;50.746;7.072;2023-09-18T07:27:15;20.90;99.90
33717;DHT22;20046;50.746;7.072;2023-09-18T07:29:41;20.90;99.90
33717;DHT22;20046;50.746;7.072;2023-09-18T07:32:07;20.90;99.90
33717;DHT22;20046;50.746;7.072;2023-09-18T07:34:33;20.90;99.90
33717;DHT22;20046;50.746;7.072;2023-09-18T07:36:58;20.90;99.90
33717;DHT22;20046;50.746;7.072;2023-09-18T07:39:24;20.90;99.90
33717;DHT22;20046;50.746;7.072;2023-09-18T07:41:49;21.00;99.90
33717;DHT22;20046;50.746;7.072;2023-09-18T07:44:19;21.00;99.90
33717;DHT22;20046;50.746;7.072;2023-09-18T07:46:46;21.00;99.90
33717;DHT22;20046;50.746;7.072;2023-09-18T07:49:11;21.00;99.90
33717;DHT22;20046;50.746;7.072;2023-09-18T07:51:37;21.00;99.90
33717;DHT22;20046;50.746;7.072;2023-09-18T07:54:03;21.00;99.90
33717;DHT22;20046;50.746;7.072;2023-09-18T07:56:29;21.00;99.90
33717;DHT22;20046;50.746;7.072;2023-09-18T07:58:56;20.90;99.90
33717;DHT22;20046;50.746;7.072;2023-09-18T08:01:22;20.90;99.90
33717;DHT22;20046;50.746;7.072;2023-09-18T08:03:48;20.90;99.90
33717;DHT22;20046;50.746;7.072;2023-09-18T08:06:14;20.90;99.90
33717;DHT22;20046;50.746;7.072;2023-09-18T08:08:43;20.90;99.90
33717;DHT22;20046;50.746;7.072;2023-09-18T08:11:08;20.90;99.90
33717;DHT22;20046;50.746;7.072;2023-09-18T08:13:34;21.00;99.90
33717;DHT22;20046;50.746;7.072;2023-09-18T08:16:00;21.00;99.90
33717;DHT22;20046;50.746;7.072;2023-09-18T08:18:26;21.00;99.90
33717;DHT22;20046;50.746;7.072;2023-09-18T08:20:53;21.00;99.90
33717;DHT22;20046;50.746;7.072;2023-09-18T08:23:19;21.00;99.90
33717;DHT22;20046;50.746;7.072;2023-09-18T08:25:45;21.00;99.90
33717;DHT22;20046;50.746;7.072;2023-09-18T08:28:12;21.10;99.90
33717;DHT22;20046;50.746;7.072;2023-09-18T08:30:40;21.10;99.90
33717;DHT22;20046;50.746;7.072;2023-09-18T08:33:06;21.10;99.90
33717;DHT22;20046;50.746;7.072;2023-09-18T08:35:31;21.20;99.90
33717;DHT22;20046;50.746;7.072;2023-09-18T08:37:57;21.10;99.90
33717;DHT22;20046;50.746;7.072;2023-09-18T08:40:23;21.20;99.90
33717;DHT22;20046;50.746;7.072;2023-09-18T08:42:52;21.20;99.90
33717;DHT22;20046;50.746;7.072;2023-09-18T08:45:35;21.20;99.90
33717;DHT22;20046;50.746;7.072;2023-09-18T08:48:01;21.30;99.90
33717;DHT22;20046;50.746;7.072;2023-09-18T08:50:28;21.30;99.90
33717;DHT22;20046;50.746;7.072;2023-09-18T08:52:54;21.30;99.90
33717;DHT22;20046;50.746;7.072;2023-09-18T08:55:20;21.50;99.90
33717;DHT22;20046;50.746;7.072;2023-09-18T08:57:46;21.50;99.90
33717;DHT22;20046;50.746;7.072;2023-09-18T09:00:13;21.60;99.90
33717;DHT22;20046;50.746;7.072;2023-09-18T09:02:43;21.70;99.90
33717;DHT22;20046;50.746;7.072;2023-09-18T09:05:08;21.80;99.90
33717;DHT22;20046;50.746;7.072;2023-09-18T09:07:34;21.90;99.90
33717;DHT22;20046;50.746;7.072;2023-09-18T09:10:00;21.90;99.90
33717;DHT22;20046;50.746;7.072;2023-09-18T09:12:51;21.90;99.90
33717;DHT22;20046;50.746;7.072;2023-09-18T09:15:20;21.90;99.90
33717;DHT22;20046;50.746;7.072;2023-09-18T09:17:46;21.80;99.90
33717;DHT22;20046;50.746;7.072;2023-09-18T09:20:13;21.80;99.90
33717;DHT22;20046;50.746;7.072;2023-09-18T09:22:40;21.90;99.90
33717;DHT22;20046;50.746;7.072;2023-09-18T09:25:24;21.80;99.90
33717;DHT22;20046;50.746;7.072;2023-09-18T09:27:52;21.80;99.90
33717;DHT22;20046;50.746;7.072;2023-09-18T09:30:20;21.80;99.90
33717;DHT22;20046;50.746;7.072;2023-09-18T09:32:51;21.80;99.90
33717;DHT22;20046;50.746;7.072;2023-09-18T09:35:24;21.80;99.90
33717;DHT22;20046;50.746;7.072;2023-09-18T09:37:56;21.80;99.90
33717;DHT22;20046;50.746;7.072;2023-09-18T09:40:23;21.90;99.90
33717;DHT22;20046;50.746;7.072;2023-09-18T09:42:52;21.90;99.90
33717;DHT22;20046;50.746;7.072;2023-09-18T09:45:19;21.90;99.90
33717;DHT22;20046;50.746;7.072;2023-09-18T09:47:45;21.90;99.90
33717;DHT22;20046;50.746;7.072;2023-09-18T09:50:14;21.90;99.90
33717;DHT22;20046;50.746;7.072;2023-09-18T09:52:43;22.00;99.90
33717;DHT22;20046;50.746;7.072;2023-09-18T09:55:23;22.10;99.90
33717;DHT22;20046;50.746;7.072;2023-09-18T09:57:55;22.20;99.90
33717;DHT22;20046;50.746;7.072;2023-09-18T10:00:24;22.30;99.90
33717;DHT22;20046;50.746;7.072;2023-09-18T10:02:57;22.40;99.90
33717;DHT22;20046;50.746;7.072;2023-09-18T10:05:29;22.60;99.90
33717;DHT22;20046;50.746;7.072;2023-09-18T10:08:00;22.70;99.90
33717;DHT22;20046;50.746;7.072;2023-09-18T10:10:32;22.90;99.90
33717;DHT22;20046;50.746;7.072;2023-09-18T10:13:10;23.00;99.90
33717;DHT22;20046;50.746;7.072;2023-09-18T10:15:38;23.20;99.90
33717;DHT22;20046;50.746;7.072;2023-09-18T10:18:16;23.20;99.90
33717;DHT22;20046;50.746;7.072;2023-09-18T10:20:44;23.30;99.90
33717;DHT22;20046;50.746;7.072;2023-09-18T10:23:38;23.40;99.90
33717;DHT22;20046;50.746;7.072;2023-09-18T10:26:10;23.40;99.90
33717;DHT22;20046;50.746;7.072;2023-09-18T10:28:36;23.40;99.90
33717;DHT22;20046;50.746;7.072;2023-09-18T10:31:03;23.40;99.90
33717;DHT22;20046;50.746;7.072;2023-09-18T10:33:29;23.50;99.90
33717;DHT22;20046;50.746;7.072;2023-09-18T10:35:56;23.60;99.90
33717;DHT22;20046;50.746;7.072;2023-09-18T10:38:22;23.70;99.90
33717;DHT22;20046;50.746;7.072;2023-09-18T10:40:49;23.70;99.90
33717;DHT22;20046;50.746;7.072;2023-09-18T10:43:16;23.80;99.90
33717;DHT22;20046;50.746;7.072;2023-09-18T10:45:43;23.90;99.90
33717;DHT22;20046;50.746;7.072;2023-09-18T10:48:10;24.20;99.90
33717;DHT22;20046;50.746;7.072;2023-09-18T10:50:39;24.40;99.90
33717;DHT22;20046;50.746;7.072;2023-09-18T10:53:06;24.40;99.90
33717;DHT22;20046;50.746;7.072;2023-09-18T10:55:32;24.30;99.90
33717;DHT22;20046;50.746;7.072;2023-09-18T10:58:00;24.40;99.90
33717;DHT22;20046;50.746;7.072;2023-09-18T11:00:26;24.40;99.90
33717;DHT22;20046;50.746;7.072;2023-09-18T11:02:55;24.70;99.90
33717;DHT22;20046;50.746;7.072;2023-09-18T11:05:34;24.90;99.90
33717;DHT22;20046;50.746;7.072;2023-09-18T11:08:35;25.30;99.90
33717;DHT22;20046;50.746;7.072;2023-09-18T11:11:09;25.60;99.90
33717;DHT22;20046;50.746;7.072;2023-09-18T11:13:54;25.50;99.90
33717;DHT22;20046;50.746;7.072;2023-09-18T11:19:16;25.60;99.90
33717;DHT22;20046;50.746;7.072;2023-09-18T11:21:39;26.00;99.90
33717;DHT22;20046;50.746;7.072;2023-09-18T11:24:07;27.00;99.90
33717;DHT22;20046;50.746;7.072;2023-09-18T11:26:39;28.30;99.90
33717;DHT22;20046;50.746;7.072;2023-09-18T11:29:07;29.70;99.90
33717;DHT22;20046;50.746;7.072;2023-09-18T11:31:53;31.00;99.90
33717;DHT22;20046;50.746;7.072;2023-09-18T11:34:24;31.90;98.00
33717;DHT22;20046;50.746;7.072;2023-09-18T11:36:52;31.70;96.80
33717;DHT22;20046;50.746;7.072;2023-09-18T11:42:21;32.40;95.00
33717;DHT22;20046;50.746;7.072;2023-09-18T11:44:52;32.80;94.10
33717;DHT22;20046;50.746;7.072;2023-09-18T11:47:23;33.10;92.60
33717;DHT22;20046;50.746;7.072;2023-09-18T11:49:57;33.60;92.40
33717;DHT22;20046;50.746;7.072;2023-09-18T11:52:28;34.10;91.70
33717;DHT22;20046;50.746;7.072;2023-09-18T11:54:59;34.10;90.20
33717;DHT22;20046;50.746;7.072;2023-09-18T11:57:27;34.60;89.70
33717;DHT22;20046;50.746;7.072;2023-09-18T11:59:54;34.80;86.80
33717;DHT22;20046;50.746;7.072;2023-09-18T12:02:28;34.80;86.70
33717;DHT22;20046;50.746;7.072;2023-09-18T12:05:14;35.30;84.40
33717;DHT22;20046;50.746;7.072;2023-09-18T12:07:42;34.90;83.50
33717;DHT22;20046;50.746;7.072;2023-09-18T12:10:15;35.10;81.70
33717;DHT22;20046;50.746;7.072;2023-09-18T12:12:43;35.00;81.40
33717;DHT22;20046;50.746;7.072;2023-09-18T12:15:13;34.70;81.00
33717;DHT22;20046;50.746;7.072;2023-09-18T12:17:39;34.60;81.20
33717;DHT22;20046;50.746;7.072;2023-09-18T12:20:05;35.10;81.20
33717;DHT22;20046;50.746;7.072;2023-09-18T12:22:31;35.30;78.80
33717;DHT22;20046;50.746;7.072;2023-09-18T12:25:12;35.10;78.40
33717;DHT22;20046;50.746;7.072;2023-09-18T12:27:40;34.90;78.70
33717;DHT22;20046;50.746;7.072;2023-09-18T12:30:06;34.60;77.80
33717;DHT22;20046;50.746;7.072;2023-09-18T12:32:32;34.40;78.00
33717;DHT22;20046;50.746;7.072;2023-09-18T12:34:58;35.20;76.70
33717;DHT22;20046;50.746;7.072;2023-09-18T12:37:24;35.90;75.70
33717;DHT22;20046;50.746;7.072;2023-09-18T12:39:50;36.20;74.60
33717;DHT22;20046;50.746;7.072;2023-09-18T12:42:20;36.20;75.00
33717;DHT22;20046;50.746;7.072;2023-09-18T12:44:47;36.90;74.00
33717;DHT22;20046;50.746;7.072;2023-09-18T12:47:14;37.40;71.90
33717;DHT22;20046;50.746;7.072;2023-09-18T12:49:39;37.30;70.30
33717;DHT22;20046;50.746;7.072;2023-09-18T12:52:05;37.20;69.80
33717;DHT22;20046;50.746;7.072;2023-09-18T12:54:45;36.80;70.20
33717;DHT22;20046;50.746;7.072;2023-09-18T12:57:17;36.60;69.90
33717;DHT22;20046;50.746;7.072;2023-09-18T12:59:43;36.40;67.70
33717;DHT22;20046;50.746;7.072;2023-09-18T13:02:13;36.00;67.70
33717;DHT22;20046;50.746;7.072;2023-09-18T13:04:39;36.00;68.00
33717;DHT22;20046;50.746;7.072;2023-09-18T13:07:10;36.00;67.60
33717;DHT22;20046;50.746;7.072;2023-09-18T13:09:36;36.00;67.50
33717;DHT22;20046;50.746;7.072;2023-09-18T13:12:03;36.00;68.00
33717;DHT22;20046;50.746;7.072;2023-09-18T13:14:29;36.30;67.80
33717;DHT22;20046;50.746;7.072;2023-09-18T13:17:00;36.80;67.20
33717;DHT22;20046;50.746;7.072;2023-09-18T13:19:29;36.90;67.00
33717;DHT22;20046;50.746;7.072;2023-09-18T13:21:55;37.00;64.60
33717;DHT22;20046;50.746;7.072;2023-09-18T13:24:28;37.60;64.70
33717;DHT22;20046;50.746;7.072;2023-09-18T13:26:54;38.20;64.70
33717;DHT22;20046;50.746;7.072;2023-09-18T13:29:21;38.30;63.50
33717;DHT22;20046;50.746;7.072;2023-09-18T13:31:47;38.00;63.10
33717;DHT22;20046;50.746;7.072;2023-09-18T13:34:12;37.80;62.10
33717;DHT22;20046;50.746;7.072;2023-09-18T13:36:38;37.30;62.20
33717;DHT22;20046;50.746;7.072;2023-09-18T13:39:04;37.80;62.40
33717;DHT22;20046;50.746;7.072;2023-09-18T13:41:30;38.00;62.50
33717;DHT22;20046;50.746;7.072;2023-09-18T13:43:57;37.70;62.30
33717;DHT22;20046;50.746;7.072;2023-09-18T13:46:22;35.90;63.30
33717;DHT22;20046;50.746;7.072;2023-09-18T13:48:49;35.80;65.90
33717;DHT22;20046;50.746;7.072;2023-09-18T13:51:14;36.40;64.90
33717;DHT22;20046;50.746;7.072;2023-09-18T13:53:40;36.50;63.00
33717;DHT22;20046;50.746;7.072;2023-09-18T13:56:07;36.60;64.10
33717;DHT22;20046;50.746;7.072;2023-09-18T13:58:32;36.80;63.60
33717;DHT22;20046;50.746;7.072;2023-09-18T14:00:59;37.30;62.40
33717;DHT22;20046;50.746;7.072;2023-09-18T14:03:24;35.70;62.60
33717;DHT22;20046;50.746;7.072;2023-09-18T14:05:50;36.00;62.60
33717;DHT22;20046;50.746;7.072;2023-09-18T14:08:16;36.20;62.40
33717;DHT22;20046;50.746;7.072;2023-09-18T14:10:43;36.60;62.30
33717;DHT22;20046;50.746;7.072;2023-09-18T14:13:09;36.70;62.10
33717;DHT22;20046;50.746;7.072;2023-09-18T14:15:35;36.30;62.00
33717;DHT22;20046;50.746;7.072;2023-09-18T14:18:02;33.80;64.70
33717;DHT22;20046;50.746;7.072;2023-09-18T14:20:28;31.70;68.30
33717;DHT22;20046;50.746;7.072;2023-09-18T14:22:54;31.80;70.60
33717;DHT22;20046;50.746;7.072;2023-09-18T14:25:20;32.60;69.10
33717;DHT22;20046;50.746;7.072;2023-09-18T14:27:47;31.10;69.90
33717;DHT22;20046;50.746;7.072;2023-09-18T14:30:13;30.80;72.30
33717;DHT22;20046;50.746;7.072;2023-09-18T14:32:39;30.10;71.70
33717;DHT22;20046;50.746;7.072;2023-09-18T14:35:06;30.60;71.40
33717;DHT22;20046;50.746;7.072;2023-09-18T14:37:33;30.40;71.20
33717;DHT22;20046;50.746;7.072;2023-09-18T14:39:59;29.10;73.10
33717;DHT22;20046;50.746;7.072;2023-09-18T14:42:25;28.60;74.80
33717;DHT22;20046;50.746;7.072;2023-09-18T14:44:50;28.30;75.60
33717;DHT22;20046;50.746;7.072;2023-09-18T14:47:16;28.00;75.50
33717;DHT22;20046;50.746;7.072;2023-09-18T14:49:42;28.00;76.00
33717;DHT22;20046;50.746;7.072;2023-09-18T14:52:12;27.80;75.70
33717;DHT22;20046;50.746;7.072;2023-09-18T14:54:38;27.60;75.40
33717;DHT22;20046;50.746;7.072;2023-09-18T14:57:05;27.50;76.10
33717;DHT22;20046;50.746;7.072;2023-09-18T14:59:31;27.40;76.20
33717;DHT22;20046;50.746;7.072;2023-09-18T15:01:56;27.30;77.00
33717;DHT22;20046;50.746;7.072;2023-09-18T15:04:23;27.10;77.80
33717;DHT22;20046;50.746;7.072;2023-09-18T15:06:48;27.10;78.60
33717;DHT22;20046;50.746;7.072;2023-09-18T15:09:14;27.00;78.50
33717;DHT22;20046;50.746;7.072;2023-09-18T15:11:39;27.00;78.50
33717;DHT22;20046;50.746;7.072;2023-09-18T15:14:05;26.90;78.00
33717;DHT22;20046;50.746;7.072;2023-09-18T15:16:31;26.80;78.70
33717;DHT22;20046;50.746;7.072;2023-09-18T15:18:57;26.80;77.70
33717;DHT22;20046;50.746;7.072;2023-09-18T15:21:29;26.60;77.90
33717;DHT22;20046;50.746;7.072;2023-09-18T15:23:55;26.60;78.10
33717;DHT22;20046;50.746;7.072;2023-09-18T15:26:21;26.70;78.50
33717;DHT22;20046;50.746;7.072;2023-09-18T15:28:46;26.70;78.20
33717;DHT22;20046;50.746;7.072;2023-09-18T15:31:12;26.80;78.10
33717;DHT22;20046;50.746;7.072;2023-09-18T15:33:38;26.60;77.90
33717;DHT22;20046;50.746;7.072;2023-09-18T15:36:06;26.60;78.70
33717;DHT22;20046;50.746;7.072;2023-09-18T15:38:31;26.50;78.10
33717;DHT22;20046;50.746;7.072;2023-09-18T15:40:57;26.40;78.60
33717;DHT22;20046;50.746;7.072;2023-09-18T15:43:25;26.30;78.50